Time;durP1;ratioP1;P1;durP2;ratioP2;P2;SDS_P1;SDS_P2;PMS_P1;PMS_P2;Temp;Humidity;BMP_temperature;BMP_pressure;BME280_temperature;BME280_humidity;BME280_pressure;Samples;Min_cycle;Max_cycle;Signal;HPM_P1;HPM_P2
2023/07/19 00:00:23;;;;;;;10.18;7.95;;;;;;;;;;5157750;27;20206;-67
2023/07/19 00:02:49;;;;;;;10.30;7.95;;;;;;;;;;5158618;27;20420;-67
2023/07/19 00:05:16;;;;;;;13.90;7.40;;;;;;;;;;5156708;27;20201;-67
2023/07/19 00:07:42;;;;;;;11.70;7.20;;;;;;;;;;5154944;27;20479;-67
2023/07/19 00:10:10;;;;;;;8.55;7.75;;;;;;;;;;5155577;27;20214;-67
2023/07/19 00:12:36;;;;;;;11.90;9.50;;;;;;;;;;5158541;27;20264;-67
2023/07/19 00:15:02;;;;;;;16.10;9.50;;;;;;;;;;5158091;27;20197;-67
2023/07/19 00:17:29;;;;;;;10.45;9.02;;;;;;;;;;5154826;27;20201;-67
2023/07/19 00:19:55;;;;;;;12.48;10.35;;;;;;;;;;5154697;27;20203;-67
2023/07/19 00:22:21;;;;;;;15.13;9.85;;;;;;;;;;5156762;27;20240;-67
2023/07/19 00:24:47;;;;;;;15.52;10.32;;;;;;;;;;5158242;27;20519;-67
2023/07/19 00:27:15;;;;;;;13.20;10.48;;;;;;;;;;5157125;27;20220;-67
2023/07/19 00:29:41;;;;;;;18.55;10.60;;;;;;;;;;5154591;27;20268;-67
2023/07/19 00:32:08;;;;;;;14.05;10.38;;;;;;;;;;5154517;27;20198;-67
2023/07/19 00:34:34;;;;;;;17.30;9.95;;;;;;;;;;5157791;27;20518;-67
2023/07/19 00:37:01;;;;;;;13.52;9.30;;;;;;;;;;5157773;27;20232;-67
2023/07/19 00:39:28;;;;;;;13.88;9.07;;;;;;;;;;5154790;27;20263;-67
2023/07/19 00:41:54;;;;;;;10.88;8.88;;;;;;;;;;5154404;27;20494;-67
2023/07/19 00:44:21;;;;;;;10.43;8.75;;;;;;;;;;5156060;27;20198;-67
2023/07/19 00:46:48;;;;;;;11.70;8.93;;;;;;;;;;5157785;27;20193;-67
2023/07/19 00:49:14;;;;;;;12.75;8.65;;;;;;;;;;5156421;27;20200;-68
2023/07/19 00:51:41;;;;;;;12.00;8.73;;;;;;;;;;5154288;27;20275;-67
2023/07/19 00:54:08;;;;;;;12.48;8.18;;;;;;;;;;5154025;27;20393;-67
2023/07/19 00:56:34;;;;;;;11.20;8.73;;;;;;;;;;5157610;27;20201;-67
2023/07/19 00:59:02;;;;;;;13.65;7.65;;;;;;;;;;5157567;27;20201;-67
2023/07/19 01:01:29;;;;;;;10.43;7.68;;;;;;;;;;5154129;27;20199;-67
2023/07/19 01:03:56;;;;;;;8.05;7.25;;;;;;;;;;5153583;27;20371;-67
2023/07/19 01:06:22;;;;;;;8.65;7.28;;;;;;;;;;5155752;27;20204;-67
2023/07/19 01:08:49;;;;;;;8.35;7.20;;;;;;;;;;5157202;27;20193;-67
2023/07/19 01:11:15;;;;;;;8.82;7.30;;;;;;;;;;5156059;27;20221;-67
2023/07/19 01:13:50;;;;;;;9.32;7.18;;;;;;;;;;5153340;27;20194;-67
2023/07/19 01:16:16;;;;;;;8.32;7.57;;;;;;;;;;5154698;27;20202;-67
2023/07/19 01:18:44;;;;;;;9.35;7.07;;;;;;;;;;5157482;27;20197;-67
2023/07/19 01:21:10;;;;;;;7.60;6.70;;;;;;;;;;5157135;27;20489;-67
2023/07/19 01:23:38;;;;;;;11.57;7.13;;;;;;;;;;5153394;27;20194;-67
2023/07/19 01:26:04;;;;;;;8.55;6.63;;;;;;;;;;5153350;27;20201;-67
2023/07/19 01:28:30;;;;;;;9.73;7.38;;;;;;;;;;5156637;27;20213;-67
2023/07/19 01:30:57;;;;;;;9.85;7.35;;;;;;;;;;5156408;27;20232;-67
2023/07/19 01:33:23;;;;;;;8.70;7.13;;;;;;;;;;5154660;27;20201;-67
2023/07/19 01:35:50;;;;;;;12.32;7.30;;;;;;;;;;5153360;27;20218;-67
2023/07/19 01:38:16;;;;;;;9.25;7.20;;;;;;;;;;5154201;27;20220;-67
2023/07/19 01:40:43;;;;;;;7.40;6.70;;;;;;;;;;5156628;27;20197;-67
2023/07/19 01:43:10;;;;;;;8.80;6.80;;;;;;;;;;5156386;27;20198;-67
2023/07/19 01:45:36;;;;;;;9.13;6.55;;;;;;;;;;5153181;27;20513;-67
2023/07/19 01:48:02;;;;;;;7.93;6.57;;;;;;;;;;5152950;27;20370;-67
2023/07/19 01:50:29;;;;;;;8.38;7.13;;;;;;;;;;5155865;27;20218;-67
2023/07/19 01:52:55;;;;;;;8.68;6.72;;;;;;;;;;5156464;27;20193;-67
2023/07/19 01:55:21;;;;;;;9.13;6.85;;;;;;;;;;5154539;27;20606;-67
2023/07/19 01:57:49;;;;;;;12.50;7.40;;;;;;;;;;5152994;27;20198;-67
2023/07/19 02:00:16;;;;;;;14.05;7.05;;;;;;;;;;5153376;27;20221;-67
2023/07/19 02:02:42;;;;;;;9.50;7.55;;;;;;;;;;5156136;27;20198;-67
2023/07/19 02:05:09;;;;;;;10.02;7.70;;;;;;;;;;5156093;27;20280;-67
2023/07/19 02:07:35;;;;;;;8.73;7.70;;;;;;;;;;5153043;27;20192;-67
2023/07/19 02:10:02;;;;;;;9.55;7.38;;;;;;;;;;5152523;27;20240;-66
2023/07/19 02:12:28;;;;;;;9.02;7.05;;;;;;;;;;5152530;27;20288;-66
2023/07/19 02:14:56;;;;;;;8.65;7.05;;;;;;;;;;5152510;27;20486;-66
2023/07/19 02:17:22;;;;;;;15.32;7.28;;;;;;;;;;5153918;27;20205;-66
2023/07/19 02:19:48;;;;;;;12.85;7.05;;;;;;;;;;5155465;27;20261;-66
2023/07/19 02:22:15;;;;;;;9.75;7.28;;;;;;;;;;5149684;27;20191;-66
2023/07/19 02:24:42;;;;;;;9.85;7.32;;;;;;;;;;5155957;27;20394;-66
2023/07/19 02:27:08;;;;;;;12.20;7.35;;;;;;;;;;5155976;27;20221;-66
2023/07/19 02:29:34;;;;;;;10.60;8.48;;;;;;;;;;5152872;27;20394;-66
2023/07/19 02:32:02;;;;;;;13.32;8.50;;;;;;;;;;5151981;27;20210;-66
2023/07/19 02:34:28;;;;;;;10.50;8.27;;;;;;;;;;5154002;27;20509;-66
2023/07/19 02:36:56;;;;;;;14.18;8.48;;;;;;;;;;5155555;27;20200;-66
2023/07/19 02:39:25;;;;;;;18.02;9.63;;;;;;;;;;5154186;27;20230;-66
2023/07/19 02:41:51;;;;;;;13.38;9.88;;;;;;;;;;5149099;27;20190;-66
2023/07/19 02:44:18;;;;;;;17.15;10.82;;;;;;;;;;5154428;27;20197;-66
2023/07/19 02:46:44;;;;;;;13.52;9.02;;;;;;;;;;5151976;27;20399;-66
2023/07/19 02:49:12;;;;;;;16.45;9.32;;;;;;;;;;5151940;27;20194;-66
2023/07/19 02:51:38;;;;;;;14.25;9.35;;;;;;;;;;5155071;27;20217;-66
2023/07/19 02:54:04;;;;;;;14.05;9.07;;;;;;;;;;5155294;27;20374;-66
2023/07/19 02:56:30;;;;;;;14.82;8.65;;;;;;;;;;5153056;27;20435;-67
2023/07/19 02:58:57;;;;;;;14.68;9.60;;;;;;;;;;5151820;27;20198;-67
2023/07/19 03:01:23;;;;;;;12.35;8.73;;;;;;;;;;5152821;27;20198;-67
2023/07/19 03:03:49;;;;;;;15.18;9.10;;;;;;;;;;5155108;27;20200;-67
2023/07/19 03:06:18;;;;;;;12.00;8.73;;;;;;;;;;5155023;27;20200;-67
2023/07/19 03:08:44;;;;;;;10.90;8.10;;;;;;;;;;5151738;27;20410;-67
2023/07/19 03:11:10;;;;;;;13.13;8.60;;;;;;;;;;5151576;27;20217;-67
2023/07/19 03:13:37;;;;;;;13.93;9.20;;;;;;;;;;5154412;27;20209;-67
2023/07/19 03:16:03;;;;;;;14.20;8.68;;;;;;;;;;5155584;27;20469;-67
2023/07/19 03:18:30;;;;;;;12.32;8.77;;;;;;;;;;5152749;27;20268;-67
2023/07/19 03:20:57;;;;;;;14.10;9.48;;;;;;;;;;5151752;27;20205;-67
2023/07/19 03:23:25;;;;;;;12.90;9.07;;;;;;;;;;5152477;27;20221;-67
2023/07/19 03:25:51;;;;;;;16.60;8.90;;;;;;;;;;5155177;27;20469;-67
2023/07/19 03:28:18;;;;;;;13.15;8.90;;;;;;;;;;5154506;27;20224;-67
2023/07/19 03:30:44;;;;;;;14.70;8.30;;;;;;;;;;5151270;27;20202;-67
2023/07/19 03:33:10;;;;;;;12.68;8.65;;;;;;;;;;5155585;27;20517;-67
2023/07/19 03:35:37;;;;;;;12.18;8.68;;;;;;;;;;5158465;27;20201;-67
2023/07/19 03:38:03;;;;;;;11.68;8.05;;;;;;;;;;5159364;27;20185;-67
2023/07/19 03:40:30;;;;;;;10.70;8.65;;;;;;;;;;5157070;27;20208;-67
2023/07/19 03:42:57;;;;;;;8.93;7.78;;;;;;;;;;5155340;27;20490;-67
2023/07/19 03:45:25;;;;;;;11.13;8.00;;;;;;;;;;5156018;27;20377;-67
2023/07/19 03:47:51;;;;;;;13.07;8.23;;;;;;;;;;5158671;27;20209;-67
2023/07/19 03:50:17;;;;;;;13.27;8.52;;;;;;;;;;5158898;27;20194;-67
2023/07/19 03:52:44;;;;;;;11.38;8.30;;;;;;;;;;5155252;27;20449;-67
2023/07/19 03:55:10;;;;;;;12.00;8.88;;;;;;;;;;5155269;27;20199;-67
2023/07/19 03:57:38;;;;;;;10.63;8.68;;;;;;;;;;5158211;27;20198;-67
2023/07/19 04:00:04;;;;;;;10.07;7.97;;;;;;;;;;5158416;27;20398;-67
2023/07/19 04:02:31;;;;;;;9.90;7.85;;;;;;;;;;5156470;27;20202;-67
2023/07/19 04:04:59;;;;;;;10.50;8.13;;;;;;;;;;5155136;27;20395;-67
2023/07/19 04:07:26;;;;;;;12.25;8.13;;;;;;;;;;5156154;27;20206;-67
2023/07/19 04:09:53;;;;;;;13.00;8.20;;;;;;;;;;5158599;27;20426;-67
2023/07/19 04:12:19;;;;;;;9.45;7.65;;;;;;;;;;5158069;27;20411;-67
2023/07/19 04:14:47;;;;;;;10.18;8.13;;;;;;;;;;5154512;27;20396;-67
2023/07/19 04:17:13;;;;;;;9.73;7.78;;;;;;;;;;5154983;27;20194;-69
2023/07/19 04:19:40;;;;;;;10.45;8.05;;;;;;;;;;5157839;27;20247;-69
2023/07/19 04:22:06;;;;;;;9.05;7.45;;;;;;;;;;5158413;27;20430;-69
2023/07/19 04:24:32;;;;;;;13.32;8.70;;;;;;;;;;5156097;27;20194;-69
2023/07/19 04:26:59;;;;;;;11.05;8.73;;;;;;;;;;5154697;27;20375;-69
2023/07/19 04:29:25;;;;;;;12.90;8.95;;;;;;;;;;5155354;27;20212;-69
2023/07/19 04:31:52;;;;;;;14.90;8.88;;;;;;;;;;5158061;27;20209;-69
2023/07/19 04:34:20;;;;;;;14.73;9.75;;;;;;;;;;5157871;27;20398;-69
2023/07/19 04:36:46;;;;;;;13.95;9.57;;;;;;;;;;5146513;27;20258;-69
2023/07/19 04:39:12;;;;;;;12.15;9.60;;;;;;;;;;5154450;27;20198;-69
2023/07/19 04:41:39;;;;;;;14.43;10.38;;;;;;;;;;5157030;27;20195;-69
2023/07/19 04:44:05;;;;;;;12.73;9.60;;;;;;;;;;5156791;27;20201;-69
2023/07/19 04:46:31;;;;;;;11.93;10.25;;;;;;;;;;5156250;27;20392;-69
2023/07/19 04:48:59;;;;;;;13.32;10.68;;;;;;;;;;5154418;27;20396;-69
2023/07/19 04:51:25;;;;;;;15.20;10.63;;;;;;;;;;5154814;27;20221;-70
2023/07/19 04:53:51;;;;;;;13.02;10.65;;;;;;;;;;5157550;27;20247;-70
2023/07/19 04:56:17;;;;;;;11.88;9.80;;;;;;;;;;5157538;27;20202;-70
2023/07/19 04:58:44;;;;;;;16.73;10.40;;;;;;;;;;5154024;27;20198;-70
2023/07/19 05:01:10;;;;;;;9.10;8.07;;;;;;;;;;5153877;27;20198;-70
2023/07/19 05:03:37;;;;;;;16.55;9.23;;;;;;;;;;5155950;27;20198;-70
2023/07/19 05:06:04;;;;;;;11.85;10.02;;;;;;;;;;5157332;27;20193;-70
2023/07/19 05:08:31;;;;;;;14.98;11.45;;;;;;;;;;5155981;27;20204;-70
2023/07/19 05:10:57;;;;;;;16.38;11.38;;;;;;;;;;5153588;27;20194;-70
2023/07/19 05:13:23;;;;;;;16.02;11.55;;;;;;;;;;5153698;27;20300;-70
2023/07/19 05:15:49;;;;;;;16.15;11.07;;;;;;;;;;5157298;27;20219;-70
2023/07/19 05:18:16;;;;;;;17.63;12.77;;;;;;;;;;5157229;27;20200;-70
2023/07/19 05:20:42;;;;;;;19.85;12.60;;;;;;;;;;5154316;27;20538;-70
2023/07/19 05:23:10;;;;;;;19.83;13.70;;;;;;;;;;5153262;27;20258;-58
2023/07/19 05:25:36;;;;;;;21.42;13.88;;;;;;;;;;5154912;27;20243;-55
2023/07/19 05:28:02;;;;;;;23.88;12.63;;;;;;;;;;5140919;27;20245;-57
2023/07/19 05:30:29;;;;;;;18.10;12.40;;;;;;;;;;5153766;27;20218;-58
2023/07/19 05:32:55;;;;;;;17.55;13.52;;;;;;;;;;5147864;27;20218;-58
2023/07/19 05:35:21;;;;;;;23.50;13.55;;;;;;;;;;5148068;27;20214;-57
2023/07/19 05:37:48;;;;;;;16.40;12.35;;;;;;;;;;5142338;27;20206;-59
2023/07/19 05:40:17;;;;;;;14.20;11.80;;;;;;;;;;5151647;27;20373;-59
2023/07/19 05:42:43;;;;;;;15.18;11.82;;;;;;;;;;5148828;27;20208;-59
2023/07/19 05:45:09;;;;;;;15.45;10.65;;;;;;;;;;5148539;27;20210;-59
2023/07/19 05:47:36;;;;;;;18.20;10.95;;;;;;;;;;5148429;27;20404;-58
2023/07/19 05:50:03;;;;;;;14.27;9.68;;;;;;;;;;5148083;27;20237;-57
2023/07/19 05:52:32;;;;;;;15.85;9.77;;;;;;;;;;5140062;27;20478;-58
2023/07/19 05:54:58;;;;;;;12.73;9.73;;;;;;;;;;5138425;27;20274;-57
2023/07/19 05:57:26;;;;;;;11.43;9.02;;;;;;;;;;5136664;27;20216;-58
2023/07/19 05:59:53;;;;;;;12.15;9.05;;;;;;;;;;5139486;27;20210;-58
2023/07/19 06:02:19;;;;;;;13.40;8.85;;;;;;;;;;5143412;27;20210;-58
2023/07/19 06:04:46;;;;;;;10.35;7.43;;;;;;;;;;5150102;27;20206;-58
2023/07/19 06:07:15;;;;;;;9.93;8.00;;;;;;;;;;5141749;27;20212;-57
2023/07/19 06:09:41;;;;;;;11.27;8.40;;;;;;;;;;5137212;27;20267;-56
2023/07/19 06:12:08;;;;;;;13.27;7.93;;;;;;;;;;5142619;27;20441;-57
2023/07/19 06:14:35;;;;;;;9.77;7.68;;;;;;;;;;5148367;27;20506;-57
2023/07/19 06:17:02;;;;;;;13.52;7.93;;;;;;;;;;5144712;27;20205;-57
2023/07/19 06:19:28;;;;;;;9.77;7.60;;;;;;;;;;5142055;27;20218;-58
2023/07/19 06:21:55;;;;;;;11.35;7.28;;;;;;;;;;5140091;27;20543;-58
2023/07/19 06:24:21;;;;;;;8.13;7.20;;;;;;;;;;5137232;27;20218;-58
2023/07/19 06:26:48;;;;;;;7.72;6.47;;;;;;;;;;5140897;27;20205;-58
2023/07/19 06:29:14;;;;;;;13.90;6.75;;;;;;;;;;5143442;27;20440;-58
2023/07/19 06:31:42;;;;;;;13.52;6.35;;;;;;;;;;5138350;27;20202;-58
2023/07/19 06:34:08;;;;;;;11.77;7.38;;;;;;;;;;5145896;27;20206;-57
2023/07/19 06:36:34;;;;;;;9.70;6.38;;;;;;;;;;5140893;27;20563;-57
2023/07/19 06:39:00;;;;;;;9.02;5.80;;;;;;;;;;5149527;27;20210;-58
2023/07/19 06:41:27;;;;;;;7.60;6.60;;;;;;;;;;5137629;27;20210;-58
2023/07/19 06:43:54;;;;;;;9.13;6.30;;;;;;;;;;5144577;27;20529;-58
2023/07/19 06:46:22;;;;;;;8.82;6.32;;;;;;;;;;5137463;27;20210;-58
2023/07/19 06:48:49;;;;;;;13.18;6.07;;;;;;;;;;5137993;27;20213;-58
2023/07/19 06:51:16;;;;;;;9.27;5.47;;;;;;;;;;5138022;27;20391;-59
2023/07/19 06:53:42;;;;;;;10.00;6.00;;;;;;;;;;5138499;27;20289;-59
2023/07/19 06:56:09;;;;;;;8.43;5.43;;;;;;;;;;5144785;27;20210;-59
2023/07/19 06:58:35;;;;;;;7.55;5.05;;;;;;;;;;5140236;27;20216;-56
2023/07/19 07:01:01;;;;;;;8.07;5.05;;;;;;;;;;5145238;27;20276;-58
2023/07/19 07:03:29;;;;;;;8.85;5.00;;;;;;;;;;5141384;27;20206;-58
2023/07/19 07:05:57;;;;;;;6.32;4.72;;;;;;;;;;5130252;27;20230;-56
2023/07/19 07:08:24;;;;;;;5.63;4.95;;;;;;;;;;5141671;27;20214;-57
2023/07/19 07:10:50;;;;;;;4.75;4.35;;;;;;;;;;5148499;27;20200;-58
2023/07/19 07:13:16;;;;;;;9.80;4.72;;;;;;;;;;5136739;27;20591;-58
2023/07/19 07:15:43;;;;;;;9.05;4.90;;;;;;;;;;5145617;27;20210;-58
2023/07/19 07:18:09;;;;;;;6.07;4.53;;;;;;;;;;5142330;27;20213;-58
2023/07/19 07:20:35;;;;;;;7.20;4.78;;;;;;;;;;5139064;27;20215;-58
2023/07/19 07:23:03;;;;;;;6.22;4.80;;;;;;;;;;5139140;27;20202;-56
2023/07/19 07:25:30;;;;;;;9.45;4.65;;;;;;;;;;5141055;27;20210;-57
2023/07/19 07:27:57;;;;;;;8.70;4.60;;;;;;;;;;5140944;27;20221;-58
2023/07/19 07:30:23;;;;;;;7.47;4.95;;;;;;;;;;5145671;27;20220;-58
2023/07/19 07:32:49;;;;;;;5.57;4.25;;;;;;;;;;5139629;27;20218;-58
2023/07/19 07:35:16;;;;;;;6.35;4.53;;;;;;;;;;5145534;27;20398;-58
2023/07/19 07:37:43;;;;;;;6.10;4.70;;;;;;;;;;5145082;27;20537;-58
2023/07/19 07:40:10;;;;;;;8.98;4.88;;;;;;;;;;5143679;27;20206;-58
2023/07/19 07:42:37;;;;;;;6.75;4.50;;;;;;;;;;5141897;27;20671;-58
2023/07/19 07:45:04;;;;;;;7.60;4.45;;;;;;;;;;5144782;27;20206;-58
2023/07/19 07:47:30;;;;;;;6.57;4.72;;;;;;;;;;5138086;27;20545;-58
2023/07/19 07:49:56;;;;;;;12.45;4.40;;;;;;;;;;5132706;27;20275;-57
2023/07/19 07:52:23;;;;;;;4.97;3.97;;;;;;;;;;5137170;27;20229;-58
2023/07/19 07:54:49;;;;;;;4.63;4.20;;;;;;;;;;5143660;27;20514;-59
2023/07/19 07:57:17;;;;;;;5.03;4.35;;;;;;;;;;5138208;27;20206;-57
2023/07/19 07:59:44;;;;;;;6.50;4.10;;;;;;;;;;5140439;27;20220;-57
2023/07/19 08:02:10;;;;;;;4.57;4.18;;;;;;;;;;5142390;27;20224;-57
2023/07/19 08:04:36;;;;;;;5.68;4.07;;;;;;;;;;5142701;27;20213;-58
2023/07/19 08:07:03;;;;;;;6.63;4.50;;;;;;;;;;5143547;27;20537;-58
2023/07/19 08:09:29;;;;;;;8.05;3.90;;;;;;;;;;5136372;27;20218;-58
2023/07/19 08:11:55;;;;;;;8.63;4.32;;;;;;;;;;5140752;27;20209;-58
2023/07/19 08:14:23;;;;;;;6.68;3.78;;;;;;;;;;5143602;27;20231;-58
2023/07/19 08:16:50;;;;;;;6.15;4.15;;;;;;;;;;5138662;27;20285;-58
2023/07/19 08:19:16;;;;;;;8.35;4.07;;;;;;;;;;5145618;27;20212;-58
2023/07/19 08:21:43;;;;;;;9.43;4.30;;;;;;;;;;5142190;27;20251;-58
2023/07/19 08:24:09;;;;;;;4.70;3.92;;;;;;;;;;5139959;27;20202;-57
2023/07/19 08:26:35;;;;;;;6.90;3.85;;;;;;;;;;5142837;27;20210;-57
2023/07/19 08:29:01;;;;;;;6.55;4.03;;;;;;;;;;5145029;27;20476;-58
2023/07/19 08:31:29;;;;;;;4.38;3.60;;;;;;;;;;5144983;27;20217;-58
2023/07/19 08:33:55;;;;;;;5.78;3.80;;;;;;;;;;5143751;27;20217;-58
2023/07/19 08:36:22;;;;;;;6.57;3.25;;;;;;;;;;5149088;27;20209;-58
2023/07/19 08:38:48;;;;;;;7.07;3.20;;;;;;;;;;5140318;27;20236;-59
2023/07/19 08:41:18;;;;;;;9.55;3.17;;;;;;;;;;5145706;27;20210;-58
2023/07/19 08:43:45;;;;;;;5.00;3.08;;;;;;;;;;5141427;27;20205;-59
2023/07/19 08:46:14;;;;;;;8.60;3.05;;;;;;;;;;5139508;27;20514;-58
2023/07/19 08:48:42;;;;;;;7.63;2.80;;;;;;;;;;5143210;27;20224;-59
2023/07/19 08:51:09;;;;;;;2.38;2.20;;;;;;;;;;5144827;27;20204;-58
2023/07/19 08:53:35;;;;;;;4.38;1.70;;;;;;;;;;5144956;27;20245;-58
2023/07/19 08:56:02;;;;;;;1.80;1.50;;;;;;;;;;5147332;27;20206;-57
2023/07/19 08:58:28;;;;;;;2.33;1.92;;;;;;;;;;5147580;27;20210;-59
2023/07/19 09:00:55;;;;;;;1.90;1.40;;;;;;;;;;5144929;27;20348;-58
2023/07/19 09:03:21;;;;;;;3.92;1.40;;;;;;;;;;5143407;27;20228;-58
2023/07/19 09:05:49;;;;;;;5.25;1.70;;;;;;;;;;5141474;27;20216;-58
2023/07/19 09:08:15;;;;;;;13.65;2.10;;;;;;;;;;5141202;27;20239;-58
2023/07/19 09:10:43;;;;;;;3.97;1.48;;;;;;;;;;5148697;27;20216;-57
2023/07/19 09:13:09;;;;;;;3.50;1.63;;;;;;;;;;5147263;27;20452;-58
2023/07/19 09:15:36;;;;;;;3.95;1.63;;;;;;;;;;5147591;27;20210;-58
2023/07/19 09:18:03;;;;;;;1.67;1.20;;;;;;;;;;5140160;27;20205;-59
2023/07/19 09:20:29;;;;;;;2.80;1.40;;;;;;;;;;5137824;27;20285;-58
2023/07/19 09:22:58;;;;;;;4.20;1.48;;;;;;;;;;5137035;27;20213;-57
2023/07/19 09:25:24;;;;;;;5.30;1.48;;;;;;;;;;5141090;27;20275;-57
2023/07/19 09:27:53;;;;;;;2.08;1.45;;;;;;;;;;5140060;27;20230;-58
2023/07/19 09:30:25;;;;;;;1.45;1.38;;;;;;;;;;5141218;27;20210;-59
2023/07/19 09:32:59;;;;;;;3.28;1.45;;;;;;;;;;5135589;27;20479;-59
2023/07/19 09:35:27;;;;;;;1.33;1.23;;;;;;;;;;5138868;27;20519;-59
2023/07/19 09:37:53;;;;;;;1.70;1.60;;;;;;;;;;5136723;27;20521;-58
2023/07/19 09:40:21;;;;;;;2.20;1.55;;;;;;;;;;5141538;27;20213;-59
2023/07/19 09:42:48;;;;;;;1.90;1.70;;;;;;;;;;5138728;27;20213;-59
2023/07/19 09:45:16;;;;;;;3.08;1.75;;;;;;;;;;5138047;27;20278;-59
2023/07/19 09:47:42;;;;;;;2.88;1.30;;;;;;;;;;5140577;27;20210;-59
2023/07/19 09:50:09;;;;;;;3.58;1.40;;;;;;;;;;5134824;27;20211;-59
2023/07/19 09:52:37;;;;;;;1.75;1.55;;;;;;;;;;5136013;27;20210;-60
2023/07/19 09:55:04;;;;;;;1.50;1.40;;;;;;;;;;5130064;27;20481;-66
2023/07/19 09:57:33;;;;;;;6.93;1.27;;;;;;;;;;5134110;27;20217;-56
2023/07/19 10:00:01;;;;;;;4.57;1.73;;;;;;;;;;5125558;27;20401;-56
2023/07/19 10:02:28;;;;;;;3.40;1.70;;;;;;;;;;5141343;27;20209;-57
2023/07/19 10:04:54;;;;;;;1.30;1.15;;;;;;;;;;5127748;27;20544;-58
2023/07/19 10:07:21;;;;;;;2.33;1.15;;;;;;;;;;5128516;27;20238;-58
2023/07/19 10:09:49;;;;;;;1.50;1.45;;;;;;;;;;5139078;27;20291;-57
2023/07/19 10:12:24;;;;;;;1.20;1.20;;;;;;;;;;5132703;27;20210;-57
2023/07/19 10:14:55;;;;;;;1.60;1.50;;;;;;;;;;5131455;27;20266;-56
2023/07/19 10:17:22;;;;;;;2.95;1.23;;;;;;;;;;5135340;27;20248;-58
2023/07/19 10:19:58;;;;;;;7.15;1.40;;;;;;;;;;5140461;27;20214;-56
2023/07/19 10:22:39;;;;;;;1.58;1.30;;;;;;;;;;5140632;27;20215;-58
2023/07/19 10:25:06;;;;;;;5.75;1.73;;;;;;;;;;5134263;27;20202;-58
2023/07/19 10:27:36;;;;;;;4.95;1.40;;;;;;;;;;5131959;27;20229;-56
2023/07/19 10:30:06;;;;;;;2.60;1.60;;;;;;;;;;5130452;27;20206;-58
2023/07/19 10:32:32;;;;;;;2.83;1.40;;;;;;;;;;5133870;27;20407;-57
2023/07/19 10:34:58;;;;;;;1.58;1.42;;;;;;;;;;5138235;27;20357;-57
2023/07/19 10:37:25;;;;;;;4.57;1.60;;;;;;;;;;5136250;27;20216;-58
2023/07/19 10:39:51;;;;;;;2.35;1.40;;;;;;;;;;5132692;27;20217;-57
2023/07/19 10:42:17;;;;;;;1.30;1.20;;;;;;;;;;5136659;27;20217;-56
2023/07/19 10:44:43;;;;;;;4.63;1.55;;;;;;;;;;5131962;27;20504;-57
2023/07/19 10:47:14;;;;;;;1.55;1.42;;;;;;;;;;5138819;27;20206;-57
2023/07/19 10:49:40;;;;;;;2.92;1.33;;;;;;;;;;5135808;27;20544;-58
2023/07/19 10:52:06;;;;;;;3.70;1.42;;;;;;;;;;5138157;27;20206;-57
2023/07/19 10:54:33;;;;;;;1.33;1.30;;;;;;;;;;5134551;27;20414;-58
2023/07/19 10:57:00;;;;;;;4.28;1.30;;;;;;;;;;5131336;27;20210;-57
2023/07/19 10:59:27;;;;;;;5.15;1.50;;;;;;;;;;5134486;27;20220;-57
2023/07/19 11:01:55;;;;;;;2.88;1.25;;;;;;;;;;5138439;27;20533;-57
2023/07/19 11:04:23;;;;;;;2.05;1.42;;;;;;;;;;5136077;27;20546;-58
2023/07/19 11:06:54;;;;;;;3.28;1.55;;;;;;;;;;5139675;27;20209;-56
2023/07/19 11:09:22;;;;;;;4.25;1.60;;;;;;;;;;5135159;27;20400;-56
2023/07/19 11:11:49;;;;;;;4.18;1.60;;;;;;;;;;5131495;27;20213;-57
2023/07/19 11:14:27;;;;;;;1.98;1.38;;;;;;;;;;5139608;27;20444;-57
2023/07/19 11:16:54;;;;;;;4.18;1.60;;;;;;;;;;5129904;27;20217;-56
2023/07/19 11:19:32;;;;;;;3.42;1.60;;;;;;;;;;5137554;28;20220;-57
2023/07/19 11:21:59;;;;;;;1.98;1.40;;;;;;;;;;5137611;27;20276;-57
2023/07/19 11:24:33;;;;;;;4.45;1.63;;;;;;;;;;5127644;27;20510;-56
2023/07/19 11:26:59;;;;;;;8.65;1.70;;;;;;;;;;5129045;27;20209;-56
2023/07/19 11:29:29;;;;;;;1.75;1.60;;;;;;;;;;5133257;27;20421;-59
2023/07/19 11:31:58;;;;;;;5.85;1.77;;;;;;;;;;5131434;27;20209;-58
2023/07/19 11:34:24;;;;;;;4.35;1.60;;;;;;;;;;5129900;28;20300;-58
2023/07/19 11:36:52;;;;;;;6.82;1.60;;;;;;;;;;5138496;27;20241;-58
2023/07/19 11:39:19;;;;;;;2.08;1.88;;;;;;;;;;5127302;27;20444;-58
2023/07/19 11:41:46;;;;;;;2.55;1.60;;;;;;;;;;5133415;27;20232;-57
2023/07/19 11:44:13;;;;;;;5.25;1.60;;;;;;;;;;5131850;27;20202;-58
2023/07/19 11:46:40;;;;;;;5.05;1.40;;;;;;;;;;5134709;27;20209;-58
2023/07/19 11:49:10;;;;;;;2.45;1.73;;;;;;;;;;5136475;27;20207;-56
2023/07/19 11:51:36;;;;;;;5.15;1.90;;;;;;;;;;5128275;28;20261;-57
2023/07/19 11:54:04;;;;;;;3.55;1.50;;;;;;;;;;5140224;27;20233;-57
2023/07/19 11:56:30;;;;;;;6.05;1.50;;;;;;;;;;5136826;27;20209;-56
2023/07/19 11:58:56;;;;;;;4.78;1.63;;;;;;;;;;5144011;27;20214;-56
2023/07/19 12:01:23;;;;;;;5.65;2.10;;;;;;;;;;5138642;27;20224;-57
2023/07/19 12:03:49;;;;;;;4.13;1.67;;;;;;;;;;5139235;27;20209;-57
2023/07/19 12:06:15;;;;;;;3.28;1.50;;;;;;;;;;5133651;27;20213;-57
2023/07/19 12:08:42;;;;;;;3.67;1.73;;;;;;;;;;5137049;27;20210;-58
2023/07/19 12:11:09;;;;;;;3.05;1.50;;;;;;;;;;5135818;27;20206;-55
2023/07/19 12:13:36;;;;;;;10.57;1.92;;;;;;;;;;5131917;27;20210;-58
2023/07/19 12:16:02;;;;;;;6.90;1.80;;;;;;;;;;5129084;27;20510;-57
2023/07/19 12:18:29;;;;;;;6.05;1.70;;;;;;;;;;5131103;27;20224;-58
2023/07/19 12:20:55;;;;;;;3.40;1.63;;;;;;;;;;5140151;27;20276;-58
2023/07/19 12:23:22;;;;;;;10.43;2.00;;;;;;;;;;5133821;27;20210;-58
2023/07/19 12:25:49;;;;;;;4.93;1.50;;;;;;;;;;5140412;27;20225;-57
2023/07/19 12:28:22;;;;;;;6.38;2.05;;;;;;;;;;5139303;27;20229;-59
2023/07/19 12:30:48;;;;;;;7.32;2.00;;;;;;;;;;5135984;27;20286;-57
2023/07/19 12:33:15;;;;;;;4.82;1.90;;;;;;;;;;5143626;27;20269;-58
2023/07/19 12:35:41;;;;;;;5.03;1.95;;;;;;;;;;5148643;27;20563;-58
2023/07/19 12:38:08;;;;;;;5.45;2.20;;;;;;;;;;5142886;27;20228;-58
2023/07/19 12:40:34;;;;;;;3.45;2.05;;;;;;;;;;5151464;27;20213;-56
2023/07/19 12:43:00;;;;;;;3.25;1.75;;;;;;;;;;5142975;27;20209;-58
2023/07/19 12:45:28;;;;;;;5.70;1.90;;;;;;;;;;5148257;27;20240;-58
2023/07/19 12:47:54;;;;;;;3.72;1.88;;;;;;;;;;5146765;27;20553;-57
2023/07/19 12:50:20;;;;;;;5.95;2.10;;;;;;;;;;5147730;27;20405;-58
2023/07/19 12:52:47;;;;;;;5.47;2.00;;;;;;;;;;5145633;27;20265;-58
2023/07/19 12:55:13;;;;;;;3.63;2.05;;;;;;;;;;5136890;27;20217;-58
2023/07/19 12:57:40;;;;;;;5.72;2.38;;;;;;;;;;5148020;27;20217;-58
2023/07/19 13:00:13;;;;;;;4.75;2.35;;;;;;;;;;5150518;27;20220;-58
2023/07/19 13:02:44;;;;;;;4.70;2.47;;;;;;;;;;5145268;27;20209;-58
2023/07/19 13:05:10;;;;;;;4.28;1.95;;;;;;;;;;5138832;27;20522;-57
2023/07/19 13:07:36;;;;;;;4.70;2.40;;;;;;;;;;5145450;27;20209;-58
2023/07/19 13:10:03;;;;;;;2.83;2.60;;;;;;;;;;5149766;27;20513;-58
2023/07/19 13:12:29;;;;;;;2.78;2.50;;;;;;;;;;5148389;27;20198;-56
2023/07/19 13:14:55;;;;;;;5.68;2.53;;;;;;;;;;5146138;27;20257;-58
2023/07/19 13:17:22;;;;;;;7.13;2.50;;;;;;;;;;5145709;27;20528;-58
2023/07/19 13:19:50;;;;;;;2.60;2.40;;;;;;;;;;5142384;27;20198;-58
2023/07/19 13:22:16;;;;;;;4.32;2.47;;;;;;;;;;5134714;27;20206;-57
2023/07/19 13:24:43;;;;;;;2.80;2.60;;;;;;;;;;5139557;27;20253;-55
2023/07/19 13:27:09;;;;;;;6.35;2.80;;;;;;;;;;5149754;27;20232;-56
2023/07/19 13:29:35;;;;;;;6.03;2.65;;;;;;;;;;5142112;27;20214;-56
2023/07/19 13:32:02;;;;;;;4.72;2.70;;;;;;;;;;5146762;27;20217;-56
2023/07/19 13:34:29;;;;;;;4.88;2.70;;;;;;;;;;5139157;27;20393;-56
2023/07/19 13:36:57;;;;;;;3.70;2.67;;;;;;;;;;5140835;27;20210;-57
2023/07/19 13:39:23;;;;;;;3.17;2.88;;;;;;;;;;5146562;27;20227;-57
2023/07/19 13:41:49;;;;;;;3.90;3.08;;;;;;;;;;5140146;27;20543;-56
2023/07/19 13:44:16;;;;;;;7.88;3.15;;;;;;;;;;5140833;27;20442;-57
2023/07/19 13:46:52;;;;;;;3.08;2.88;;;;;;;;;;5141807;27;20220;-56
2023/07/19 13:49:19;;;;;;;5.20;3.33;;;;;;;;;;5138404;27;20210;-58
2023/07/19 13:51:45;;;;;;;3.45;3.10;;;;;;;;;;5142500;27;20209;-58
2023/07/19 13:54:13;;;;;;;4.60;3.38;;;;;;;;;;5142904;27;20209;-57
2023/07/19 13:56:39;;;;;;;4.07;3.65;;;;;;;;;;5148403;27;20216;-57
2023/07/19 13:59:05;;;;;;;4.43;3.15;;;;;;;;;;5146219;27;20213;-56
2023/07/19 14:01:32;;;;;;;5.60;3.25;;;;;;;;;;5141223;27;20214;-57
2023/07/19 14:03:58;;;;;;;3.28;3.03;;;;;;;;;;5140925;27;20395;-58
2023/07/19 14:06:24;;;;;;;3.40;2.70;;;;;;;;;;5145973;27;20214;-57
2023/07/19 14:08:51;;;;;;;5.88;2.70;;;;;;;;;;5144034;27;20224;-59
2023/07/19 14:11:19;;;;;;;8.93;3.10;;;;;;;;;;5149077;27;20216;-58
2023/07/19 14:13:48;;;;;;;4.65;3.00;;;;;;;;;;5137383;27;20560;-56
2023/07/19 14:16:15;;;;;;;2.80;2.60;;;;;;;;;;5139367;27;20225;-56
2023/07/19 14:18:41;;;;;;;6.57;2.97;;;;;;;;;;5138574;27;20231;-56
2023/07/19 14:21:08;;;;;;;5.10;2.92;;;;;;;;;;5139158;27;20413;-60
2023/07/19 14:23:34;;;;;;;7.55;3.05;;;;;;;;;;5147596;27;20216;-57
2023/07/19 14:26:00;;;;;;;3.83;3.08;;;;;;;;;;5149894;27;20205;-58
2023/07/19 14:28:28;;;;;;;3.90;2.95;;;;;;;;;;5147423;27;20225;-57
2023/07/19 14:30:55;;;;;;;3.63;2.88;;;;;;;;;;5147216;27;20217;-55
2023/07/19 14:33:22;;;;;;;6.78;3.08;;;;;;;;;;5147259;27;20248;-57
2023/07/19 14:35:48;;;;;;;5.38;2.75;;;;;;;;;;5147408;27;20222;-56